sensor_id;sensor_type;location;lat;lon;timestamp;P1;durP1;ratioP1;P2;durP2;ratioP2
77870;SDS011;67067;46.850;7.578;2024-03-29T00:00:28;5.05;;;2.78;;
77870;SDS011;67067;46.850;7.578;2024-03-29T00:01:33;28.65;;;12.15;;
77870;SDS011;67067;46.850;7.578;2024-03-29T00:02:34;29.73;;;12.15;;
77870;SDS011;67067;46.850;7.578;2024-03-29T00:03:35;14.35;;;5.82;;
77870;SDS011;67067;46.850;7.578;2024-03-29T00:04:36;9.55;;;3.85;;
77870;SDS011;67067;46.850;7.578;2024-03-29T00:05:39;4.88;;;3.42;;
77870;SDS011;67067;46.850;7.578;2024-03-29T00:06:42;3.42;;;2.78;;
77870;SDS011;67067;46.850;7.578;2024-03-29T00:07:43;3.78;;;3.40;;
77870;SDS011;67067;46.850;7.578;2024-03-29T00:08:46;3.20;;;3.00;;
77870;SDS011;67067;46.850;7.578;2024-03-29T00:09:47;1.92;;;1.77;;
77870;SDS011;67067;46.850;7.578;2024-03-29T00:10:47;2.22;;;1.92;;
77870;SDS011;67067;46.850;7.578;2024-03-29T00:11:48;1.90;;;1.30;;
77870;SDS011;67067;46.850;7.578;2024-03-29T00:12:49;1.40;;;1.30;;
77870;SDS011;67067;46.850;7.578;2024-03-29T00:13:50;2.35;;;1.60;;
77870;SDS011;67067;46.850;7.578;2024-03-29T00:14:51;1.83;;;1.73;;
77870;SDS011;67067;46.850;7.578;2024-03-29T00:15:52;1.67;;;1.58;;
77870;SDS011;67067;46.850;7.578;2024-03-29T00:16:53;2.63;;;1.85;;
77870;SDS011;67067;46.850;7.578;2024-03-29T00:17:57;4.73;;;1.97;;
77870;SDS011;67067;46.850;7.578;2024-03-29T00:18:58;2.95;;;2.10;;
77870;SDS011;67067;46.850;7.578;2024-03-29T00:19:58;2.60;;;1.80;;
77870;SDS011;67067;46.850;7.578;2024-03-29T00:20:59;2.73;;;1.80;;
77870;SDS011;67067;46.850;7.578;2024-03-29T00:22:00;2.08;;;1.88;;
77870;SDS011;67067;46.850;7.578;2024-03-29T00:23:02;2.38;;;2.10;;
77870;SDS011;67067;46.850;7.578;2024-03-29T00:24:03;3.35;;;1.60;;
77870;SDS011;67067;46.850;7.578;2024-03-29T00:25:04;2.15;;;1.90;;
77870;SDS011;67067;46.850;7.578;2024-03-29T00:26:05;1.65;;;1.55;;
77870;SDS011;67067;46.850;7.578;2024-03-29T00:27:07;2.72;;;2.10;;
77870;SDS011;67067;46.850;7.578;2024-03-29T00:28:10;2.97;;;2.20;;
77870;SDS011;67067;46.850;7.578;2024-03-29T00:29:11;2.28;;;2.08;;
77870;SDS011;67067;46.850;7.578;2024-03-29T00:30:12;3.83;;;2.03;;
77870;SDS011;67067;46.850;7.578;2024-03-29T00:31:13;3.20;;;2.25;;
77870;SDS011;67067;46.850;7.578;2024-03-29T00:32:14;7.05;;;2.10;;
77870;SDS011;67067;46.850;7.578;2024-03-29T00:33:15;1.77;;;1.67;;
77870;SDS011;67067;46.850;7.578;2024-03-29T00:34:16;1.65;;;1.45;;
77870;SDS011;67067;46.850;7.578;2024-03-29T00:35:17;5.32;;;1.60;;
77870;SDS011;67067;46.850;7.578;2024-03-29T00:36:18;3.95;;;1.73;;
77870;SDS011;67067;46.850;7.578;2024-03-29T00:37:19;1.70;;;1.50;;
77870;SDS011;67067;46.850;7.578;2024-03-29T00:38:19;1.70;;;1.60;;
77870;SDS011;67067;46.850;7.578;2024-03-29T00:39:20;2.15;;;1.85;;
77870;SDS011;67067;46.850;7.578;2024-03-29T00:40:21;1.70;;;1.60;;
77870;SDS011;67067;46.850;7.578;2024-03-29T00:41:22;1.92;;;1.55;;
77870;SDS011;67067;46.850;7.578;2024-03-29T00:42:23;1.73;;;1.50;;
77870;SDS011;67067;46.850;7.578;2024-03-29T00:44:26;3.05;;;1.40;;
77870;SDS011;67067;46.850;7.578;2024-03-29T00:45:26;1.13;;;1.13;;
77870;SDS011;67067;46.850;7.578;2024-03-29T00:46:29;1.95;;;1.63;;
77870;SDS011;67067;46.850;7.578;2024-03-29T00:47:29;1.38;;;1.27;;
77870;SDS011;67067;46.850;7.578;2024-03-29T00:48:30;1.63;;;1.52;;
77870;SDS011;67067;46.850;7.578;2024-03-29T00:49:31;1.58;;;1.48;;
77870;SDS011;67067;46.850;7.578;2024-03-29T00:50:32;3.65;;;1.67;;
77870;SDS011;67067;46.850;7.578;2024-03-29T00:51:33;1.40;;;1.30;;
77870;SDS011;67067;46.850;7.578;2024-03-29T00:52:36;2.83;;;1.10;;
77870;SDS011;67067;46.850;7.578;2024-03-29T00:53:37;3.38;;;1.60;;
77870;SDS011;67067;46.850;7.578;2024-03-29T00:54:38;1.77;;;1.25;;
77870;SDS011;67067;46.850;7.578;2024-03-29T00:55:39;1.48;;;1.38;;
77870;SDS011;67067;46.850;7.578;2024-03-29T00:56:40;1.23;;;1.17;;
77870;SDS011;67067;46.850;7.578;2024-03-29T00:57:42;4.07;;;1.27;;
77870;SDS011;67067;46.850;7.578;2024-03-29T00:58:43;2.53;;;1.23;;
77870;SDS011;67067;46.850;7.578;2024-03-29T00:59:44;2.33;;;1.58;;
77870;SDS011;67067;46.850;7.578;2024-03-29T01:00:47;3.38;;;1.65;;
77870;SDS011;67067;46.850;7.578;2024-03-29T01:01:49;1.40;;;1.30;;
77870;SDS011;67067;46.850;7.578;2024-03-29T01:03:51;2.13;;;1.10;;
77870;SDS011;67067;46.850;7.578;2024-03-29T01:04:53;2.30;;;1.33;;
77870;SDS011;67067;46.850;7.578;2024-03-29T01:05:54;3.15;;;1.70;;
77870;SDS011;67067;46.850;7.578;2024-03-29T01:06:54;1.00;;;1.00;;
77870;SDS011;67067;46.850;7.578;2024-03-29T01:08:57;1.30;;;1.20;;
77870;SDS011;67067;46.850;7.578;2024-03-29T01:09:58;1.50;;;1.40;;
77870;SDS011;67067;46.850;7.578;2024-03-29T01:10:59;1.20;;;1.20;;
77870;SDS011;67067;46.850;7.578;2024-03-29T01:12:00;1.40;;;1.30;;
77870;SDS011;67067;46.850;7.578;2024-03-29T01:13:01;1.63;;;1.52;;
77870;SDS011;67067;46.850;7.578;2024-03-29T01:14:03;1.30;;;1.20;;
77870;SDS011;67067;46.850;7.578;2024-03-29T01:16:05;2.20;;;1.35;;
77870;SDS011;67067;46.850;7.578;2024-03-29T01:17:06;2.85;;;1.45;;
77870;SDS011;67067;46.850;7.578;2024-03-29T01:18:07;1.63;;;1.42;;
77870;SDS011;67067;46.850;7.578;2024-03-29T01:19:10;4.47;;;1.55;;
77870;SDS011;67067;46.850;7.578;2024-03-29T01:20:14;1.95;;;1.17;;
77870;SDS011;67067;46.850;7.578;2024-03-29T01:21:15;1.65;;;1.55;;
77870;SDS011;67067;46.850;7.578;2024-03-29T01:22:16;1.52;;;1.42;;
77870;SDS011;67067;46.850;7.578;2024-03-29T01:23:17;3.00;;;1.70;;
77870;SDS011;67067;46.850;7.578;2024-03-29T01:24:17;1.47;;;1.37;;
77870;SDS011;67067;46.850;7.578;2024-03-29T01:25:19;1.77;;;1.63;;
77870;SDS011;67067;46.850;7.578;2024-03-29T01:26:19;1.55;;;1.30;;
77870;SDS011;67067;46.850;7.578;2024-03-29T01:27:20;3.28;;;1.30;;
77870;SDS011;67067;46.850;7.578;2024-03-29T01:28:21;0.90;;;0.90;;
77870;SDS011;67067;46.850;7.578;2024-03-29T01:29:25;1.25;;;1.15;;
77870;SDS011;67067;46.850;7.578;2024-03-29T01:30:26;2.60;;;1.30;;
77870;SDS011;67067;46.850;7.578;2024-03-29T01:31:27;1.33;;;1.20;;
77870;SDS011;67067;46.850;7.578;2024-03-29T01:32:28;1.73;;;1.50;;
77870;SDS011;67067;46.850;7.578;2024-03-29T01:33:29;1.42;;;1.33;;
77870;SDS011;67067;46.850;7.578;2024-03-29T01:34:33;13.27;;;6.10;;
77870;SDS011;67067;46.850;7.578;2024-03-29T01:35:35;12.88;;;5.15;;
77870;SDS011;67067;46.850;7.578;2024-03-29T01:36:38;12.98;;;5.22;;
77870;SDS011;67067;46.850;7.578;2024-03-29T01:37:39;4.80;;;3.10;;
77870;SDS011;67067;46.850;7.578;2024-03-29T01:38:40;2.15;;;1.75;;
77870;SDS011;67067;46.850;7.578;2024-03-29T01:39:41;2.42;;;1.67;;
77870;SDS011;67067;46.850;7.578;2024-03-29T01:40:42;2.78;;;1.88;;
77870;SDS011;67067;46.850;7.578;2024-03-29T01:41:43;3.25;;;1.38;;
77870;SDS011;67067;46.850;7.578;2024-03-29T01:42:46;1.55;;;1.30;;
77870;SDS011;67067;46.850;7.578;2024-03-29T01:43:47;4.53;;;1.53;;
77870;SDS011;67067;46.850;7.578;2024-03-29T01:44:51;2.00;;;1.63;;
77870;SDS011;67067;46.850;7.578;2024-03-29T01:45:53;2.33;;;1.52;;
77870;SDS011;67067;46.850;7.578;2024-03-29T01:46:55;1.90;;;1.27;;
77870;SDS011;67067;46.850;7.578;2024-03-29T01:47:59;2.00;;;1.60;;
77870;SDS011;67067;46.850;7.578;2024-03-29T01:49:00;1.85;;;1.35;;
77870;SDS011;67067;46.850;7.578;2024-03-29T01:50:01;1.80;;;1.20;;
77870;SDS011;67067;46.850;7.578;2024-03-29T01:51:02;1.30;;;1.20;;
77870;SDS011;67067;46.850;7.578;2024-03-29T01:52:03;1.40;;;1.25;;
77870;SDS011;67067;46.850;7.578;2024-03-29T01:53:05;2.03;;;1.08;;
77870;SDS011;67067;46.850;7.578;2024-03-29T01:54:11;1.45;;;1.30;;
77870;SDS011;67067;46.850;7.578;2024-03-29T01:55:12;2.10;;;1.35;;
77870;SDS011;67067;46.850;7.578;2024-03-29T01:56:13;2.63;;;1.42;;
77870;SDS011;67067;46.850;7.578;2024-03-29T01:57:16;2.85;;;1.48;;
77870;SDS011;67067;46.850;7.578;2024-03-29T01:58:20;1.83;;;1.35;;
77870;SDS011;67067;46.850;7.578;2024-03-29T01:59:22;2.78;;;1.60;;
77870;SDS011;67067;46.850;7.578;2024-03-29T02:12:36;2.08;;;1.70;;
77870;SDS011;67067;46.850;7.578;2024-03-29T02:13:40;1.75;;;1.48;;
77870;SDS011;67067;46.850;7.578;2024-03-29T02:14:43;1.67;;;1.30;;
77870;SDS011;67067;46.850;7.578;2024-03-29T02:15:47;1.30;;;1.20;;
77870;SDS011;67067;46.850;7.578;2024-03-29T02:16:48;2.80;;;1.55;;
77870;SDS011;67067;46.850;7.578;2024-03-29T02:17:51;2.55;;;1.58;;
77870;SDS011;67067;46.850;7.578;2024-03-29T02:18:54;1.65;;;1.45;;
77870;SDS011;67067;46.850;7.578;2024-03-29T02:19:55;1.80;;;1.30;;
77870;SDS011;67067;46.850;7.578;2024-03-29T02:20:56;2.95;;;1.90;;
77870;SDS011;67067;46.850;7.578;2024-03-29T02:22:00;2.30;;;2.03;;
77870;SDS011;67067;46.850;7.578;2024-03-29T02:24:07;3.42;;;1.83;;
77870;SDS011;67067;46.850;7.578;2024-03-29T02:26:09;1.70;;;1.55;;
77870;SDS011;67067;46.850;7.578;2024-03-29T02:27:11;2.47;;;1.60;;
77870;SDS011;67067;46.850;7.578;2024-03-29T02:28:18;1.52;;;1.40;;
77870;SDS011;67067;46.850;7.578;2024-03-29T02:29:20;3.08;;;1.38;;
77870;SDS011;67067;46.850;7.578;2024-03-29T02:30:21;1.50;;;1.40;;
77870;SDS011;67067;46.850;7.578;2024-03-29T02:31:24;2.08;;;1.50;;
77870;SDS011;67067;46.850;7.578;2024-03-29T02:32:25;2.63;;;1.73;;
77870;SDS011;67067;46.850;7.578;2024-03-29T02:33:28;1.90;;;1.58;;
77870;SDS011;67067;46.850;7.578;2024-03-29T02:34:29;1.98;;;1.70;;
77870;SDS011;67067;46.850;7.578;2024-03-29T02:35:30;1.30;;;1.17;;
77870;SDS011;67067;46.850;7.578;2024-03-29T02:36:31;3.35;;;1.40;;
77870;SDS011;67067;46.850;7.578;2024-03-29T02:37:32;1.30;;;1.20;;
77870;SDS011;67067;46.850;7.578;2024-03-29T02:38:33;1.58;;;1.48;;
77870;SDS011;67067;46.850;7.578;2024-03-29T02:39:36;1.67;;;1.58;;
77870;SDS011;67067;46.850;7.578;2024-03-29T02:40:37;1.40;;;1.30;;
77870;SDS011;67067;46.850;7.578;2024-03-29T02:41:43;2.75;;;1.55;;
77870;SDS011;67067;46.850;7.578;2024-03-29T02:42:44;4.03;;;1.80;;
77870;SDS011;67067;46.850;7.578;2024-03-29T02:43:45;2.70;;;1.60;;
77870;SDS011;67067;46.850;7.578;2024-03-29T02:44:46;1.30;;;1.20;;
77870;SDS011;67067;46.850;7.578;2024-03-29T02:45:47;3.45;;;1.33;;
77870;SDS011;67067;46.850;7.578;2024-03-29T02:46:48;3.13;;;1.70;;
77870;SDS011;67067;46.850;7.578;2024-03-29T02:47:51;1.95;;;1.42;;
77870;SDS011;67067;46.850;7.578;2024-03-29T02:48:52;1.27;;;1.20;;
77870;SDS011;67067;46.850;7.578;2024-03-29T02:49:56;1.60;;;1.50;;
77870;SDS011;67067;46.850;7.578;2024-03-29T02:50:57;1.58;;;1.20;;
77870;SDS011;67067;46.850;7.578;2024-03-29T02:51:58;1.35;;;0.98;;
77870;SDS011;67067;46.850;7.578;2024-03-29T02:52:59;2.10;;;1.50;;
77870;SDS011;67067;46.850;7.578;2024-03-29T02:54:03;1.15;;;1.02;;
77870;SDS011;67067;46.850;7.578;2024-03-29T02:55:06;3.13;;;1.70;;
77870;SDS011;67067;46.850;7.578;2024-03-29T02:56:07;2.40;;;1.23;;
77870;SDS011;67067;46.850;7.578;2024-03-29T02:57:10;2.33;;;0.93;;
77870;SDS011;67067;46.850;7.578;2024-03-29T02:58:13;1.63;;;1.05;;
77870;SDS011;67067;46.850;7.578;2024-03-29T02:59:16;4.57;;;1.50;;
77870;SDS011;67067;46.850;7.578;2024-03-29T03:00:20;1.38;;;1.27;;
77870;SDS011;67067;46.850;7.578;2024-03-29T03:01:26;1.23;;;1.15;;
77870;SDS011;67067;46.850;7.578;2024-03-29T03:02:29;1.20;;;1.20;;
77870;SDS011;67067;46.850;7.578;2024-03-29T03:03:30;4.57;;;1.60;;
77870;SDS011;67067;46.850;7.578;2024-03-29T03:04:31;2.90;;;1.57;;
77870;SDS011;67067;46.850;7.578;2024-03-29T03:05:32;2.45;;;1.40;;
77870;SDS011;67067;46.850;7.578;2024-03-29T03:06:35;2.80;;;1.40;;
77870;SDS011;67067;46.850;7.578;2024-03-29T03:07:36;1.27;;;1.10;;
77870;SDS011;67067;46.850;7.578;2024-03-29T03:08:55;1.88;;;1.30;;
77870;SDS011;67067;46.850;7.578;2024-03-29T03:10:14;1.38;;;1.27;;
77870;SDS011;67067;46.850;7.578;2024-03-29T03:11:34;1.25;;;1.20;;
77870;SDS011;67067;46.850;7.578;2024-03-29T03:12:37;3.20;;;1.40;;
77870;SDS011;67067;46.850;7.578;2024-03-29T03:13:38;3.38;;;1.63;;
77870;SDS011;67067;46.850;7.578;2024-03-29T03:14:41;1.77;;;1.67;;
77870;SDS011;67067;46.850;7.578;2024-03-29T03:15:42;3.22;;;1.63;;
77870;SDS011;67067;46.850;7.578;2024-03-29T03:16:46;1.88;;;1.50;;
77870;SDS011;67067;46.850;7.578;2024-03-29T03:17:47;3.10;;;1.60;;
77870;SDS011;67067;46.850;7.578;2024-03-29T03:18:49;2.30;;;1.60;;
77870;SDS011;67067;46.850;7.578;2024-03-29T03:19:51;1.33;;;1.23;;
77870;SDS011;67067;46.850;7.578;2024-03-29T03:20:56;2.53;;;1.60;;
77870;SDS011;67067;46.850;7.578;2024-03-29T03:22:00;2.85;;;1.50;;
77870;SDS011;67067;46.850;7.578;2024-03-29T03:23:08;1.75;;;1.60;;
77870;SDS011;67067;46.850;7.578;2024-03-29T03:24:09;4.38;;;1.40;;
77870;SDS011;67067;46.850;7.578;2024-03-29T03:25:10;2.72;;;0.93;;
77870;SDS011;67067;46.850;7.578;2024-03-29T03:26:13;2.72;;;1.35;;
77870;SDS011;67067;46.850;7.578;2024-03-29T03:27:14;1.25;;;1.10;;
77870;SDS011;67067;46.850;7.578;2024-03-29T03:28:17;1.20;;;1.20;;
77870;SDS011;67067;46.850;7.578;2024-03-29T03:29:18;2.67;;;1.17;;
77870;SDS011;67067;46.850;7.578;2024-03-29T03:30:21;2.45;;;1.35;;
77870;SDS011;67067;46.850;7.578;2024-03-29T03:31:22;1.40;;;1.13;;
77870;SDS011;67067;46.850;7.578;2024-03-29T03:32:23;1.27;;;1.10;;
77870;SDS011;67067;46.850;7.578;2024-03-29T03:33:26;4.05;;;1.17;;
77870;SDS011;67067;46.850;7.578;2024-03-29T03:34:27;1.50;;;1.10;;
77870;SDS011;67067;46.850;7.578;2024-03-29T03:35:28;1.10;;;1.10;;
77870;SDS011;67067;46.850;7.578;2024-03-29T03:36:29;2.00;;;1.35;;
77870;SDS011;67067;46.850;7.578;2024-03-29T03:37:30;1.10;;;1.00;;
77870;SDS011;67067;46.850;7.578;2024-03-29T03:38:31;1.95;;;1.40;;
77870;SDS011;67067;46.850;7.578;2024-03-29T03:39:35;1.55;;;1.08;;
77870;SDS011;67067;46.850;7.578;2024-03-29T03:40:36;1.42;;;1.20;;
77870;SDS011;67067;46.850;7.578;2024-03-29T03:41:40;1.20;;;1.10;;
77870;SDS011;67067;46.850;7.578;2024-03-29T03:42:41;0.90;;;0.90;;
77870;SDS011;67067;46.850;7.578;2024-03-29T03:43:45;2.00;;;1.30;;
77870;SDS011;67067;46.850;7.578;2024-03-29T03:44:46;2.08;;;1.20;;
77870;SDS011;67067;46.850;7.578;2024-03-29T03:45:46;1.73;;;1.17;;
77870;SDS011;67067;46.850;7.578;2024-03-29T03:46:48;2.63;;;1.05;;
77870;SDS011;67067;46.850;7.578;2024-03-29T03:47:51;1.45;;;1.10;;
77870;SDS011;67067;46.850;7.578;2024-03-29T03:48:52;1.27;;;1.13;;
77870;SDS011;67067;46.850;7.578;2024-03-29T03:49:58;2.75;;;1.40;;
77870;SDS011;67067;46.850;7.578;2024-03-29T03:50:59;1.73;;;1.25;;
77870;SDS011;67067;46.850;7.578;2024-03-29T03:52:00;3.00;;;1.83;;
77870;SDS011;67067;46.850;7.578;2024-03-29T03:53:03;1.80;;;1.48;;
77870;SDS011;67067;46.850;7.578;2024-03-29T03:54:05;1.63;;;1.52;;
77870;SDS011;67067;46.850;7.578;2024-03-29T03:55:08;2.15;;;1.30;;
77870;SDS011;67067;46.850;7.578;2024-03-29T03:56:14;3.70;;;1.38;;
77870;SDS011;67067;46.850;7.578;2024-03-29T03:57:16;1.50;;;1.40;;
77870;SDS011;67067;46.850;7.578;2024-03-29T03:58:17;1.73;;;1.38;;
77870;SDS011;67067;46.850;7.578;2024-03-29T03:59:18;2.00;;;1.88;;
77870;SDS011;67067;46.850;7.578;2024-03-29T04:00:19;2.53;;;1.90;;
77870;SDS011;67067;46.850;7.578;2024-03-29T04:01:23;1.70;;;1.60;;
77870;SDS011;67067;46.850;7.578;2024-03-29T04:02:26;1.77;;;1.60;;
77870;SDS011;67067;46.850;7.578;2024-03-29T04:03:27;2.88;;;1.30;;
77870;SDS011;67067;46.850;7.578;2024-03-29T04:04:28;3.95;;;1.60;;
77870;SDS011;67067;46.850;7.578;2024-03-29T04:05:32;1.42;;;1.33;;
77870;SDS011;67067;46.850;7.578;2024-03-29T04:06:33;1.60;;;1.50;;
77870;SDS011;67067;46.850;7.578;2024-03-29T04:07:33;3.30;;;1.50;;
77870;SDS011;67067;46.850;7.578;2024-03-29T04:08:34;1.42;;;1.33;;
77870;SDS011;67067;46.850;7.578;2024-03-29T04:09:35;1.65;;;1.55;;
77870;SDS011;67067;46.850;7.578;2024-03-29T04:10:39;1.63;;;1.30;;
77870;SDS011;67067;46.850;7.578;2024-03-29T04:11:41;2.72;;;2.15;;
77870;SDS011;67067;46.850;7.578;2024-03-29T04:12:46;3.05;;;1.45;;
77870;SDS011;67067;46.850;7.578;2024-03-29T04:13:47;1.35;;;1.25;;
77870;SDS011;67067;46.850;7.578;2024-03-29T04:14:48;1.70;;;1.20;;
77870;SDS011;67067;46.850;7.578;2024-03-29T04:15:52;1.77;;;1.25;;
77870;SDS011;67067;46.850;7.578;2024-03-29T04:16:55;3.50;;;1.58;;
77870;SDS011;67067;46.850;7.578;2024-03-29T04:17:56;1.42;;;1.33;;
77870;SDS011;67067;46.850;7.578;2024-03-29T04:18:57;1.38;;;1.27;;
77870;SDS011;67067;46.850;7.578;2024-03-29T04:19:58;1.40;;;0.97;;
77870;SDS011;67067;46.850;7.578;2024-03-29T04:21:02;1.40;;;1.25;;
77870;SDS011;67067;46.850;7.578;2024-03-29T04:22:04;1.23;;;1.15;;
77870;SDS011;67067;46.850;7.578;2024-03-29T04:23:06;2.33;;;1.52;;
77870;SDS011;67067;46.850;7.578;2024-03-29T04:24:07;3.67;;;1.60;;
77870;SDS011;67067;46.850;7.578;2024-03-29T04:25:10;1.70;;;1.05;;
77870;SDS011;67067;46.850;7.578;2024-03-29T04:26:11;1.73;;;1.45;;
77870;SDS011;67067;46.850;7.578;2024-03-29T04:27:14;1.63;;;1.13;;
77870;SDS011;67067;46.850;7.578;2024-03-29T04:28:15;1.52;;;1.42;;
77870;SDS011;67067;46.850;7.578;2024-03-29T04:29:16;1.43;;;1.33;;
77870;SDS011;67067;46.850;7.578;2024-03-29T04:30:17;1.73;;;1.42;;
77870;SDS011;67067;46.850;7.578;2024-03-29T04:31:18;1.45;;;1.10;;
77870;SDS011;67067;46.850;7.578;2024-03-29T04:32:19;2.70;;;1.57;;
77870;SDS011;67067;46.850;7.578;2024-03-29T04:33:22;3.80;;;1.33;;
77870;SDS011;67067;46.850;7.578;2024-03-29T04:34:23;1.25;;;1.15;;
77870;SDS011;67067;46.850;7.578;2024-03-29T04:35:27;2.45;;;1.25;;
77870;SDS011;67067;46.850;7.578;2024-03-29T04:36:30;1.70;;;1.50;;
77870;SDS011;67067;46.850;7.578;2024-03-29T04:37:32;1.35;;;1.10;;
77870;SDS011;67067;46.850;7.578;2024-03-29T04:38:32;1.92;;;1.42;;
77870;SDS011;67067;46.850;7.578;2024-03-29T04:39:33;1.30;;;1.10;;
77870;SDS011;67067;46.850;7.578;2024-03-29T04:40:34;1.13;;;1.10;;
77870;SDS011;67067;46.850;7.578;2024-03-29T04:41:35;1.60;;;1.30;;
77870;SDS011;67067;46.850;7.578;2024-03-29T04:42:36;1.75;;;1.30;;
77870;SDS011;67067;46.850;7.578;2024-03-29T04:43:39;1.40;;;1.30;;
77870;SDS011;67067;46.850;7.578;2024-03-29T04:44:43;1.65;;;1.55;;
77870;SDS011;67067;46.850;7.578;2024-03-29T04:45:44;2.50;;;1.35;;
77870;SDS011;67067;46.850;7.578;2024-03-29T04:46:45;1.20;;;1.15;;
77870;SDS011;67067;46.850;7.578;2024-03-29T04:47:46;2.70;;;1.53;;
77870;SDS011;67067;46.850;7.578;2024-03-29T04:48:47;4.68;;;1.33;;
77870;SDS011;67067;46.850;7.578;2024-03-29T04:49:47;1.73;;;1.60;;
77870;SDS011;67067;46.850;7.578;2024-03-29T04:50:48;2.00;;;1.33;;
77870;SDS011;67067;46.850;7.578;2024-03-29T04:51:49;2.83;;;1.38;;
77870;SDS011;67067;46.850;7.578;2024-03-29T04:52:52;1.38;;;1.27;;
77870;SDS011;67067;46.850;7.578;2024-03-29T04:53:53;2.35;;;1.52;;
77870;SDS011;67067;46.850;7.578;2024-03-29T04:54:56;1.67;;;1.42;;
77870;SDS011;67067;46.850;7.578;2024-03-29T04:55:58;1.45;;;1.27;;
77870;SDS011;67067;46.850;7.578;2024-03-29T04:56:59;2.50;;;1.38;;
77870;SDS011;67067;46.850;7.578;2024-03-29T04:58:09;1.70;;;1.60;;
77870;SDS011;67067;46.850;7.578;2024-03-29T04:59:10;1.23;;;1.13;;
77870;SDS011;67067;46.850;7.578;2024-03-29T05:00:11;1.95;;;1.60;;
77870;SDS011;67067;46.850;7.578;2024-03-29T05:02:19;2.10;;;1.40;;
77870;SDS011;67067;46.850;7.578;2024-03-29T05:03:21;2.00;;;1.45;;
77870;SDS011;67067;46.850;7.578;2024-03-29T05:04:25;1.25;;;1.13;;
77870;SDS011;67067;46.850;7.578;2024-03-29T05:05:26;3.65;;;1.63;;
77870;SDS011;67067;46.850;7.578;2024-03-29T05:06:26;2.97;;;1.23;;
77870;SDS011;67067;46.850;7.578;2024-03-29T05:07:27;1.80;;;1.63;;
77870;SDS011;67067;46.850;7.578;2024-03-29T05:08:30;1.88;;;1.73;;
77870;SDS011;67067;46.850;7.578;2024-03-29T05:09:34;1.90;;;1.60;;
77870;SDS011;67067;46.850;7.578;2024-03-29T05:10:35;2.70;;;1.50;;
77870;SDS011;67067;46.850;7.578;2024-03-29T05:11:36;2.15;;;1.88;;
77870;SDS011;67067;46.850;7.578;2024-03-29T05:12:37;1.55;;;1.45;;
77870;SDS011;67067;46.850;7.578;2024-03-29T05:13:39;2.17;;;1.65;;
77870;SDS011;67067;46.850;7.578;2024-03-29T05:15:42;1.70;;;1.60;;
77870;SDS011;67067;46.850;7.578;2024-03-29T05:16:43;2.95;;;1.35;;
77870;SDS011;67067;46.850;7.578;2024-03-29T05:17:45;1.40;;;1.30;;
77870;SDS011;67067;46.850;7.578;2024-03-29T05:18:46;2.60;;;1.50;;
77870;SDS011;67067;46.850;7.578;2024-03-29T05:19:47;1.40;;;1.40;;
77870;SDS011;67067;46.850;7.578;2024-03-29T05:20:51;1.17;;;1.13;;
77870;SDS011;67067;46.850;7.578;2024-03-29T05:21:52;1.63;;;1.52;;
77870;SDS011;67067;46.850;7.578;2024-03-29T05:22:53;2.10;;;1.40;;
77870;SDS011;67067;46.850;7.578;2024-03-29T05:23:54;1.50;;;1.40;;
77870;SDS011;67067;46.850;7.578;2024-03-29T05:24:55;1.75;;;1.40;;
77870;SDS011;67067;46.850;7.578;2024-03-29T05:25:55;3.03;;;1.63;;
77870;SDS011;67067;46.850;7.578;2024-03-29T05:26:56;1.98;;;1.60;;
77870;SDS011;67067;46.850;7.578;2024-03-29T05:27:57;1.52;;;1.40;;
77870;SDS011;67067;46.850;7.578;2024-03-29T05:28:58;2.27;;;1.10;;
77870;SDS011;67067;46.850;7.578;2024-03-29T05:30:00;2.95;;;1.30;;
77870;SDS011;67067;46.850;7.578;2024-03-29T05:32:11;1.50;;;1.17;;
77870;SDS011;67067;46.850;7.578;2024-03-29T05:33:12;2.67;;;1.40;;
77870;SDS011;67067;46.850;7.578;2024-03-29T05:34:13;0.80;;;0.80;;
77870;SDS011;67067;46.850;7.578;2024-03-29T05:35:15;2.17;;;1.42;;
77870;SDS011;67067;46.850;7.578;2024-03-29T05:36:18;1.50;;;1.40;;
77870;SDS011;67067;46.850;7.578;2024-03-29T05:37:22;1.55;;;1.45;;
77870;SDS011;67067;46.850;7.578;2024-03-29T05:38:25;1.50;;;1.40;;
77870;SDS011;67067;46.850;7.578;2024-03-29T05:39:26;2.22;;;1.40;;
77870;SDS011;67067;46.850;7.578;2024-03-29T05:40:27;3.03;;;1.40;;
77870;SDS011;67067;46.850;7.578;2024-03-29T05:41:28;2.45;;;1.58;;
77870;SDS011;67067;46.850;7.578;2024-03-29T05:42:31;1.35;;;1.25;;
77870;SDS011;67067;46.850;7.578;2024-03-29T05:43:34;2.55;;;1.50;;
77870;SDS011;67067;46.850;7.578;2024-03-29T05:44:41;2.88;;;1.35;;
77870;SDS011;67067;46.850;7.578;2024-03-29T05:45:44;1.92;;;1.70;;
77870;SDS011;67067;46.850;7.578;2024-03-29T05:46:50;1.65;;;1.55;;
77870;SDS011;67067;46.850;7.578;2024-03-29T05:47:51;2.15;;;1.52;;
77870;SDS011;67067;46.850;7.578;2024-03-29T05:48:55;1.70;;;1.60;;
77870;SDS011;67067;46.850;7.578;2024-03-29T05:49:56;1.55;;;1.30;;
77870;SDS011;67067;46.850;7.578;2024-03-29T05:50:57;1.55;;;1.45;;
77870;SDS011;67067;46.850;7.578;2024-03-29T05:52:00;2.60;;;1.90;;
77870;SDS011;67067;46.850;7.578;2024-03-29T05:53:01;3.42;;;1.40;;
77870;SDS011;67067;46.850;7.578;2024-03-29T05:54:02;2.57;;;2.10;;
77870;SDS011;67067;46.850;7.578;2024-03-29T05:55:06;4.38;;;1.50;;
77870;SDS011;67067;46.850;7.578;2024-03-29T05:56:08;1.75;;;1.50;;
77870;SDS011;67067;46.850;7.578;2024-03-29T05:57:11;1.27;;;1.13;;
77870;SDS011;67067;46.850;7.578;2024-03-29T05:58:15;4.57;;;1.80;;
77870;SDS011;67067;46.850;7.578;2024-03-29T05:59:18;2.80;;;1.23;;
77870;SDS011;67067;46.850;7.578;2024-03-29T06:00:19;2.10;;;1.48;;
77870;SDS011;67067;46.850;7.578;2024-03-29T06:01:20;3.65;;;1.63;;
77870;SDS011;67067;46.850;7.578;2024-03-29T06:02:21;3.47;;;1.45;;
77870;SDS011;67067;46.850;7.578;2024-03-29T06:03:22;1.30;;;1.17;;
77870;SDS011;67067;46.850;7.578;2024-03-29T06:04:22;3.75;;;1.65;;
77870;SDS011;67067;46.850;7.578;2024-03-29T06:05:31;1.48;;;1.38;;
77870;SDS011;67067;46.850;7.578;2024-03-29T06:06:34;2.67;;;1.73;;
77870;SDS011;67067;46.850;7.578;2024-03-29T06:07:37;1.40;;;1.30;;
77870;SDS011;67067;46.850;7.578;2024-03-29T06:08:38;2.15;;;1.70;;
77870;SDS011;67067;46.850;7.578;2024-03-29T06:09:41;1.42;;;1.33;;
77870;SDS011;67067;46.850;7.578;2024-03-29T06:10:42;1.75;;;1.20;;
77870;SDS011;67067;46.850;7.578;2024-03-29T06:11:43;1.50;;;1.40;;
77870;SDS011;67067;46.850;7.578;2024-03-29T06:12:44;4.57;;;1.80;;
77870;SDS011;67067;46.850;7.578;2024-03-29T06:13:47;3.17;;;1.50;;
77870;SDS011;67067;46.850;7.578;2024-03-29T06:14:54;2.67;;;1.92;;
77870;SDS011;67067;46.850;7.578;2024-03-29T06:16:13;2.25;;;1.75;;
77870;SDS011;67067;46.850;7.578;2024-03-29T06:17:35;3.50;;;1.45;;
77870;SDS011;67067;46.850;7.578;2024-03-29T06:18:38;1.90;;;1.63;;
77870;SDS011;67067;46.850;7.578;2024-03-29T06:19:39;1.50;;;1.37;;
77870;SDS011;67067;46.850;7.578;2024-03-29T06:20:42;1.52;;;1.42;;
77870;SDS011;67067;46.850;7.578;2024-03-29T06:21:43;1.77;;;1.47;;
77870;SDS011;67067;46.850;7.578;2024-03-29T06:22:44;1.38;;;1.27;;
77870;SDS011;67067;46.850;7.578;2024-03-29T06:23:45;1.67;;;1.40;;
77870;SDS011;67067;46.850;7.578;2024-03-29T06:24:48;2.38;;;1.20;;
77870;SDS011;67067;46.850;7.578;2024-03-29T06:25:49;2.70;;;1.17;;
77870;SDS011;67067;46.850;7.578;2024-03-29T06:26:50;1.13;;;1.08;;
77870;SDS011;67067;46.850;7.578;2024-03-29T06:27:53;3.17;;;1.67;;
77870;SDS011;67067;46.850;7.578;2024-03-29T06:28:54;6.70;;;1.52;;
77870;SDS011;67067;46.850;7.578;2024-03-29T06:29:55;2.05;;;1.23;;
77870;SDS011;67067;46.850;7.578;2024-03-29T06:30:55;1.60;;;1.50;;
77870;SDS011;67067;46.850;7.578;2024-03-29T06:31:56;2.63;;;1.77;;
77870;SDS011;67067;46.850;7.578;2024-03-29T06:33:00;1.52;;;1.42;;
77870;SDS011;67067;46.850;7.578;2024-03-29T06:34:04;1.73;;;1.38;;
77870;SDS011;67067;46.850;7.578;2024-03-29T06:35:05;1.45;;;1.35;;
77870;SDS011;67067;46.850;7.578;2024-03-29T06:36:07;1.75;;;1.55;;